sensor_id;sensor_type;location;lat;lon;timestamp;pressure;altitude;pressure_sealevel;temperature;humidity
46241;BME280;31961;52.416;-0.732;2022-09-09T00:00:28;99375.08;;;14.05;58.78
46241;BME280;31961;52.416;-0.732;2022-09-09T00:03:02;99377.30;;;14.06;58.55
46241;BME280;31961;52.416;-0.732;2022-09-09T00:05:41;99378.96;;;13.96;59.08
46241;BME280;31961;52.416;-0.732;2022-09-09T00:08:15;99382.09;;;13.79;58.92
46241;BME280;31961;52.416;-0.732;2022-09-09T00:10:50;99381.24;;;13.40;60.48
46241;BME280;31961;52.416;-0.732;2022-09-09T00:13:23;99380.36;;;13.58;59.54
46241;BME280;31961;52.416;-0.732;2022-09-09T00:15:59;99380.31;;;13.37;59.66
46241;BME280;31961;52.416;-0.732;2022-09-09T00:18:31;99377.50;;;13.24;60.15
46241;BME280;31961;52.416;-0.732;2022-09-09T00:21:04;99378.89;;;12.92;60.74
46241;BME280;31961;52.416;-0.732;2022-09-09T00:23:34;99375.88;;;13.54;59.96
46241;BME280;31961;52.416;-0.732;2022-09-09T00:26:06;99377.35;;;12.51;62.22
46241;BME280;31961;52.416;-0.732;2022-09-09T00:28:41;99380.77;;;11.97;63.24
46241;BME280;31961;52.416;-0.732;2022-09-09T00:31:14;99375.65;;;12.40;61.53
46241;BME280;31961;52.416;-0.732;2022-09-09T00:33:43;99374.71;;;13.09;60.19
46241;BME280;31961;52.416;-0.732;2022-09-09T00:36:14;99373.72;;;12.89;60.33
46241;BME280;31961;52.416;-0.732;2022-09-09T00:38:44;99375.40;;;12.87;60.18
46241;BME280;31961;52.416;-0.732;2022-09-09T00:41:19;99380.87;;;12.15;61.95
46241;BME280;31961;52.416;-0.732;2022-09-09T00:43:56;99375.75;;;13.02;60.17
46241;BME280;31961;52.416;-0.732;2022-09-09T00:46:38;99372.98;;;13.31;59.17
46241;BME280;31961;52.416;-0.732;2022-09-09T00:49:18;99374.35;;;12.89;58.99
46241;BME280;31961;52.416;-0.732;2022-09-09T00:51:56;99373.18;;;13.46;58.33
46241;BME280;31961;52.416;-0.732;2022-09-09T00:54:34;99375.99;;;13.39;57.88
46241;BME280;31961;52.416;-0.732;2022-09-09T00:57:15;99378.61;;;12.77;59.96
46241;BME280;31961;52.416;-0.732;2022-09-09T00:59:51;99384.15;;;12.34;60.73
46241;BME280;31961;52.416;-0.732;2022-09-09T01:02:27;99381.15;;;12.79;59.30
46241;BME280;31961;52.416;-0.732;2022-09-09T01:04:54;99382.64;;;12.58;60.38
46241;BME280;31961;52.416;-0.732;2022-09-09T01:07:23;99383.86;;;12.28;60.91
46241;BME280;31961;52.416;-0.732;2022-09-09T01:09:54;99382.34;;;12.89;60.51
46241;BME280;31961;52.416;-0.732;2022-09-09T01:12:32;99378.71;;;13.55;59.08
46241;BME280;31961;52.416;-0.732;2022-09-09T01:15:09;99373.95;;;13.02;59.23
46241;BME280;31961;52.416;-0.732;2022-09-09T01:17:44;99371.18;;;13.19;59.36
46241;BME280;31961;52.416;-0.732;2022-09-09T01:20:17;99378.91;;;11.99;62.75
46241;BME280;31961;52.416;-0.732;2022-09-09T01:22:59;99385.10;;;10.79;67.94
46241;BME280;31961;52.416;-0.732;2022-09-09T01:26:06;99386.75;;;10.75;69.31
46241;BME280;31961;52.416;-0.732;2022-09-09T01:28:37;99377.65;;;12.01;65.37
46241;BME280;31961;52.416;-0.732;2022-09-09T01:31:06;99383.36;;;11.71;64.48
46241;BME280;31961;52.416;-0.732;2022-09-09T01:33:36;99382.40;;;11.71;64.88
46241;BME280;31961;52.416;-0.732;2022-09-09T01:36:06;99383.82;;;10.79;66.67
46241;BME280;31961;52.416;-0.732;2022-09-09T01:38:35;99382.72;;;11.19;68.05
46241;BME280;31961;52.416;-0.732;2022-09-09T01:41:04;99388.51;;;9.91;69.46
46241;BME280;31961;52.416;-0.732;2022-09-09T01:43:31;99387.84;;;10.79;69.66
46241;BME280;31961;52.416;-0.732;2022-09-09T01:46:01;99390.45;;;10.97;69.74
46241;BME280;31961;52.416;-0.732;2022-09-09T01:48:28;99393.31;;;10.71;69.61
46241;BME280;31961;52.416;-0.732;2022-09-09T01:50:57;99394.35;;;11.02;69.66
46241;BME280;31961;52.416;-0.732;2022-09-09T01:53:24;99391.44;;;11.49;68.02
46241;BME280;31961;52.416;-0.732;2022-09-09T01:55:58;99392.61;;;11.16;68.91
46241;BME280;31961;52.416;-0.732;2022-09-09T01:58:33;99392.25;;;11.48;68.15
46241;BME280;31961;52.416;-0.732;2022-09-09T02:01:08;99389.67;;;11.41;66.50
46241;BME280;31961;52.416;-0.732;2022-09-09T02:03:43;99391.03;;;11.87;66.47
46241;BME280;31961;52.416;-0.732;2022-09-09T02:06:19;99386.15;;;11.22;67.79
46241;BME280;31961;52.416;-0.732;2022-09-09T02:08:51;99383.67;;;12.73;65.13
46241;BME280;31961;52.416;-0.732;2022-09-09T02:11:22;99381.45;;;12.56;64.68
46241;BME280;31961;52.416;-0.732;2022-09-09T02:13:52;99377.05;;;13.17;63.45
46241;BME280;31961;52.416;-0.732;2022-09-09T02:16:24;99376.01;;;12.04;64.81
46241;BME280;31961;52.416;-0.732;2022-09-09T02:18:57;99370.77;;;13.07;62.93
46241;BME280;31961;52.416;-0.732;2022-09-09T02:21:28;99379.28;;;12.20;65.58
46241;BME280;31961;52.416;-0.732;2022-09-09T02:23:58;99376.78;;;12.31;64.82
46241;BME280;31961;52.416;-0.732;2022-09-09T02:26:26;99374.87;;;12.20;66.28
46241;BME280;31961;52.416;-0.732;2022-09-09T02:28:55;99372.38;;;11.78;66.84
46241;BME280;31961;52.416;-0.732;2022-09-09T02:31:25;99374.74;;;11.24;67.38
46241;BME280;31961;52.416;-0.732;2022-09-09T02:33:54;99379.67;;;12.23;66.55
46241;BME280;31961;52.416;-0.732;2022-09-09T02:36:24;99383.22;;;12.10;65.68
46241;BME280;31961;52.416;-0.732;2022-09-09T02:38:54;99380.24;;;11.46;67.64
46241;BME280;31961;52.416;-0.732;2022-09-09T02:41:28;99382.42;;;11.62;66.75
46241;BME280;31961;52.416;-0.732;2022-09-09T02:43:57;99380.20;;;11.14;68.41
46241;BME280;31961;52.416;-0.732;2022-09-09T02:46:36;99378.43;;;11.91;66.17
46241;BME280;31961;52.416;-0.732;2022-09-09T02:49:09;99379.62;;;12.18;65.87
46241;BME280;31961;52.416;-0.732;2022-09-09T02:51:42;99379.08;;;11.89;65.97
46241;BME280;31961;52.416;-0.732;2022-09-09T02:54:20;99376.78;;;11.42;68.16
46241;BME280;31961;52.416;-0.732;2022-09-09T02:56:52;99372.68;;;12.18;66.62
46241;BME280;31961;52.416;-0.732;2022-09-09T02:59:20;99371.72;;;11.61;66.94
46241;BME280;31961;52.416;-0.732;2022-09-09T03:01:47;99377.37;;;11.86;66.78
46241;BME280;31961;52.416;-0.732;2022-09-09T03:04:14;99380.10;;;11.33;67.48
46241;BME280;31961;52.416;-0.732;2022-09-09T03:06:41;99378.94;;;11.04;68.65
46241;BME280;31961;52.416;-0.732;2022-09-09T03:09:08;99384.67;;;9.92;72.99
46241;BME280;31961;52.416;-0.732;2022-09-09T03:11:36;99372.81;;;11.29;70.23
46241;BME280;31961;52.416;-0.732;2022-09-09T03:14:03;99371.14;;;10.48;70.26
46241;BME280;31961;52.416;-0.732;2022-09-09T03:16:31;99366.13;;;11.68;68.67
46241;BME280;31961;52.416;-0.732;2022-09-09T03:18:59;99364.49;;;12.17;67.68
46241;BME280;31961;52.416;-0.732;2022-09-09T03:21:27;99367.35;;;12.56;66.25
46241;BME280;31961;52.416;-0.732;2022-09-09T03:23:54;99366.46;;;12.21;65.86
46241;BME280;31961;52.416;-0.732;2022-09-09T03:26:21;99367.74;;;12.55;65.51
46241;BME280;31961;52.416;-0.732;2022-09-09T03:28:49;99370.34;;;12.21;65.11
46241;BME280;31961;52.416;-0.732;2022-09-09T03:31:16;99369.75;;;12.76;64.64
46241;BME280;31961;52.416;-0.732;2022-09-09T03:33:43;99377.26;;;11.47;67.46
46241;BME280;31961;52.416;-0.732;2022-09-09T03:36:10;99381.62;;;12.11;66.27
46241;BME280;31961;52.416;-0.732;2022-09-09T03:38:38;99380.09;;;12.11;66.31
46241;BME280;31961;52.416;-0.732;2022-09-09T03:41:05;99383.84;;;12.29;66.19
46241;BME280;31961;52.416;-0.732;2022-09-09T03:43:33;99386.14;;;13.10;63.92
46241;BME280;31961;52.416;-0.732;2022-09-09T03:46:01;99389.53;;;13.10;63.14
46241;BME280;31961;52.416;-0.732;2022-09-09T03:48:28;99394.41;;;12.78;65.34
46241;BME280;31961;52.416;-0.732;2022-09-09T03:50:55;99400.57;;;11.68;68.52
46241;BME280;31961;52.416;-0.732;2022-09-09T03:53:24;99405.75;;;12.17;68.42
46241;BME280;31961;52.416;-0.732;2022-09-09T03:55:53;99409.62;;;11.51;70.95
46241;BME280;31961;52.416;-0.732;2022-09-09T03:58:20;99409.15;;;11.56;71.12
46241;BME280;31961;52.416;-0.732;2022-09-09T04:00:54;99412.48;;;11.17;72.44
46241;BME280;31961;52.416;-0.732;2022-09-09T04:03:21;99412.66;;;11.38;72.81
46241;BME280;31961;52.416;-0.732;2022-09-09T04:05:49;99423.74;;;10.98;74.31
46241;BME280;31961;52.416;-0.732;2022-09-09T04:08:17;99420.19;;;11.43;72.60
46241;BME280;31961;52.416;-0.732;2022-09-09T04:10:45;99423.68;;;11.40;73.75
46241;BME280;31961;52.416;-0.732;2022-09-09T04:13:12;99430.11;;;11.00;75.53
46241;BME280;31961;52.416;-0.732;2022-09-09T04:15:40;99424.24;;;11.94;73.22
46241;BME280;31961;52.416;-0.732;2022-09-09T04:18:07;99425.95;;;11.74;72.46
46241;BME280;31961;52.416;-0.732;2022-09-09T04:20:34;99426.53;;;12.09;71.01
46241;BME280;31961;52.416;-0.732;2022-09-09T04:23:02;99430.00;;;11.37;73.87
46241;BME280;31961;52.416;-0.732;2022-09-09T04:25:30;99434.32;;;11.12;75.17
46241;BME280;31961;52.416;-0.732;2022-09-09T04:27:57;99429.98;;;11.74;74.06
46241;BME280;31961;52.416;-0.732;2022-09-09T04:30:25;99429.83;;;12.14;71.48
46241;BME280;31961;52.416;-0.732;2022-09-09T04:32:52;99433.21;;;11.88;72.15
46241;BME280;31961;52.416;-0.732;2022-09-09T04:35:20;99433.72;;;11.64;74.28
46241;BME280;31961;52.416;-0.732;2022-09-09T04:37:47;99435.00;;;11.57;74.02
46241;BME280;31961;52.416;-0.732;2022-09-09T04:40:14;99435.40;;;11.77;73.42
46241;BME280;31961;52.416;-0.732;2022-09-09T04:42:41;99435.48;;;11.91;73.27
46241;BME280;31961;52.416;-0.732;2022-09-09T04:45:08;99441.03;;;11.11;75.01
46241;BME280;31961;52.416;-0.732;2022-09-09T04:47:35;99443.10;;;10.99;75.04
46241;BME280;31961;52.416;-0.732;2022-09-09T04:50:03;99440.73;;;10.56;75.73
46241;BME280;31961;52.416;-0.732;2022-09-09T04:52:31;99440.07;;;11.11;76.00
46241;BME280;31961;52.416;-0.732;2022-09-09T04:54:59;99440.87;;;11.17;76.66
46241;BME280;31961;52.416;-0.732;2022-09-09T04:57:27;99444.76;;;11.10;77.39
46241;BME280;31961;52.416;-0.732;2022-09-09T04:59:54;99442.34;;;11.26;75.65
46241;BME280;31961;52.416;-0.732;2022-09-09T05:02:21;99440.55;;;11.90;72.66
46241;BME280;31961;52.416;-0.732;2022-09-09T05:04:48;99446.12;;;11.42;73.93
46241;BME280;31961;52.416;-0.732;2022-09-09T05:07:15;99447.12;;;12.18;71.94
46241;BME280;31961;52.416;-0.732;2022-09-09T05:09:43;99444.33;;;12.54;69.68
46241;BME280;31961;52.416;-0.732;2022-09-09T05:12:10;99446.85;;;12.29;69.51
46241;BME280;31961;52.416;-0.732;2022-09-09T05:14:37;99451.10;;;12.47;70.78
46241;BME280;31961;52.416;-0.732;2022-09-09T05:17:04;99454.95;;;11.63;73.80
46241;BME280;31961;52.416;-0.732;2022-09-09T05:19:31;99464.24;;;11.24;76.09
46241;BME280;31961;52.416;-0.732;2022-09-09T05:21:58;99469.17;;;10.91;78.18
46241;BME280;31961;52.416;-0.732;2022-09-09T05:24:26;99475.04;;;10.80;78.33
46241;BME280;31961;52.416;-0.732;2022-09-09T05:26:52;99477.62;;;10.18;80.52
46241;BME280;31961;52.416;-0.732;2022-09-09T05:29:20;99480.52;;;10.78;79.78
46241;BME280;31961;52.416;-0.732;2022-09-09T05:31:47;99481.96;;;11.13;78.49
46241;BME280;31961;52.416;-0.732;2022-09-09T05:34:15;99477.22;;;11.42;77.37
46241;BME280;31961;52.416;-0.732;2022-09-09T05:36:41;99475.87;;;11.42;76.68
46241;BME280;31961;52.416;-0.732;2022-09-09T05:39:09;99469.74;;;11.22;75.05
46241;BME280;31961;52.416;-0.732;2022-09-09T05:41:35;99471.93;;;12.19;73.42
46241;BME280;31961;52.416;-0.732;2022-09-09T05:44:03;99472.01;;;11.87;71.59
46241;BME280;31961;52.416;-0.732;2022-09-09T05:46:29;99478.62;;;12.01;73.17
46241;BME280;31961;52.416;-0.732;2022-09-09T05:48:57;99484.12;;;11.91;74.10
46241;BME280;31961;52.416;-0.732;2022-09-09T05:51:25;99493.54;;;11.24;74.76
46241;BME280;31961;52.416;-0.732;2022-09-09T05:53:52;99502.29;;;10.82;77.33
46241;BME280;31961;52.416;-0.732;2022-09-09T05:56:20;99501.19;;;11.06;76.78
46241;BME280;31961;52.416;-0.732;2022-09-09T05:58:49;99503.57;;;11.54;75.29
46241;BME280;31961;52.416;-0.732;2022-09-09T06:01:17;99509.53;;;10.82;76.33
46241;BME280;31961;52.416;-0.732;2022-09-09T06:03:46;99505.12;;;11.70;75.02
46241;BME280;31961;52.416;-0.732;2022-09-09T06:06:15;99510.85;;;11.39;74.98
46241;BME280;31961;52.416;-0.732;2022-09-09T06:08:44;99512.68;;;11.37;75.51
46241;BME280;31961;52.416;-0.732;2022-09-09T06:11:14;99517.93;;;11.12;76.48
46241;BME280;31961;52.416;-0.732;2022-09-09T06:13:42;99516.35;;;11.27;76.42
46241;BME280;31961;52.416;-0.732;2022-09-09T06:16:10;99517.18;;;11.69;75.85
46241;BME280;31961;52.416;-0.732;2022-09-09T06:18:38;99517.57;;;11.24;76.73
46241;BME280;31961;52.416;-0.732;2022-09-09T06:21:09;99517.89;;;11.39;75.06
46241;BME280;31961;52.416;-0.732;2022-09-09T06:23:39;99518.48;;;11.40;76.47
46241;BME280;31961;52.416;-0.732;2022-09-09T06:26:10;99518.34;;;11.40;76.43
46241;BME280;31961;52.416;-0.732;2022-09-09T06:28:38;99524.35;;;10.51;79.27
46241;BME280;31961;52.416;-0.732;2022-09-09T06:31:08;99530.16;;;10.44;80.40
46241;BME280;31961;52.416;-0.732;2022-09-09T06:33:37;99529.02;;;11.24;79.03
46241;BME280;31961;52.416;-0.732;2022-09-09T06:36:06;99527.13;;;11.67;76.40
46241;BME280;31961;52.416;-0.732;2022-09-09T06:38:34;99535.86;;;10.92;79.87
46241;BME280;31961;52.416;-0.732;2022-09-09T06:41:02;99539.58;;;11.07;77.81
46241;BME280;31961;52.416;-0.732;2022-09-09T06:43:29;99541.37;;;10.82;78.85
46241;BME280;31961;52.416;-0.732;2022-09-09T06:45:57;99542.04;;;10.91;77.95
46241;BME280;31961;52.416;-0.732;2022-09-09T06:48:26;99541.85;;;10.23;80.74
46241;BME280;31961;52.416;-0.732;2022-09-09T06:51:01;99547.04;;;10.77;80.35
46241;BME280;31961;52.416;-0.732;2022-09-09T06:53:29;99545.30;;;10.58;80.50
46241;BME280;31961;52.416;-0.732;2022-09-09T06:55:57;99547.24;;;10.50;81.22
46241;BME280;31961;52.416;-0.732;2022-09-09T06:58:24;99549.99;;;10.78;80.16
46241;BME280;31961;52.416;-0.732;2022-09-09T07:00:51;99555.25;;;10.90;80.67
46241;BME280;31961;52.416;-0.732;2022-09-09T07:03:18;99553.07;;;10.42;80.26
46241;BME280;31961;52.416;-0.732;2022-09-09T07:05:54;99555.53;;;11.08;80.81
46241;BME280;31961;52.416;-0.732;2022-09-09T07:08:21;99557.43;;;11.01;80.18
46241;BME280;31961;52.416;-0.732;2022-09-09T07:10:48;99558.96;;;10.82;79.92
46241;BME280;31961;52.416;-0.732;2022-09-09T07:13:15;99564.00;;;11.28;79.71
46241;BME280;31961;52.416;-0.732;2022-09-09T07:15:42;99557.50;;;11.80;77.66
46241;BME280;31961;52.416;-0.732;2022-09-09T07:18:09;99565.31;;;10.89;79.76
46241;BME280;31961;52.416;-0.732;2022-09-09T07:20:36;99555.81;;;12.26;75.49
46241;BME280;31961;52.416;-0.732;2022-09-09T07:23:03;99558.34;;;11.79;75.27
46241;BME280;31961;52.416;-0.732;2022-09-09T07:25:30;99559.51;;;12.10;76.00
46241;BME280;31961;52.416;-0.732;2022-09-09T07:27:57;99564.55;;;10.97;79.17
46241;BME280;31961;52.416;-0.732;2022-09-09T07:30:25;99567.00;;;11.05;79.12
46241;BME280;31961;52.416;-0.732;2022-09-09T07:32:52;99567.24;;;11.53;77.99
46241;BME280;31961;52.416;-0.732;2022-09-09T07:35:19;99563.37;;;12.09;74.98
46241;BME280;31961;52.416;-0.732;2022-09-09T07:37:46;99574.30;;;11.68;77.34
46241;BME280;31961;52.416;-0.732;2022-09-09T07:40:14;99578.34;;;11.01;77.83
46241;BME280;31961;52.416;-0.732;2022-09-09T07:42:41;99579.97;;;11.65;77.38
46241;BME280;31961;52.416;-0.732;2022-09-09T07:45:08;99582.99;;;11.44;77.00
46241;BME280;31961;52.416;-0.732;2022-09-09T07:47:35;99585.05;;;10.38;79.36
46241;BME280;31961;52.416;-0.732;2022-09-09T07:50:03;99591.11;;;10.91;80.85
46241;BME280;31961;52.416;-0.732;2022-09-09T07:52:30;99594.31;;;11.61;78.75
46241;BME280;31961;52.416;-0.732;2022-09-09T07:54:57;99599.91;;;11.37;79.06
46241;BME280;31961;52.416;-0.732;2022-09-09T07:57:24;99604.61;;;11.41;78.77
46241;BME280;31961;52.416;-0.732;2022-09-09T07:59:51;99605.30;;;11.64;78.25
46241;BME280;31961;52.416;-0.732;2022-09-09T08:02:18;99607.72;;;12.09;76.78
46241;BME280;31961;52.416;-0.732;2022-09-09T08:04:46;99605.58;;;11.97;76.52
46241;BME280;31961;52.416;-0.732;2022-09-09T08:07:13;99612.95;;;11.31;77.30
46241;BME280;31961;52.416;-0.732;2022-09-09T08:09:40;99611.14;;;11.99;76.37
46241;BME280;31961;52.416;-0.732;2022-09-09T08:12:08;99610.88;;;12.28;75.20
46241;BME280;31961;52.416;-0.732;2022-09-09T08:14:35;99610.55;;;12.56;73.88
46241;BME280;31961;52.416;-0.732;2022-09-09T08:17:02;99610.87;;;11.96;73.18
46241;BME280;31961;52.416;-0.732;2022-09-09T08:19:29;99615.59;;;12.13;74.82
46241;BME280;31961;52.416;-0.732;2022-09-09T08:21:56;99617.50;;;12.35;75.23
46241;BME280;31961;52.416;-0.732;2022-09-09T08:24:23;99617.65;;;12.44;74.39
46241;BME280;31961;52.416;-0.732;2022-09-09T08:26:51;99624.30;;;12.03;76.31
46241;BME280;31961;52.416;-0.732;2022-09-09T08:29:18;99616.99;;;12.99;73.65
46241;BME280;31961;52.416;-0.732;2022-09-09T08:31:47;99621.47;;;12.88;72.71
46241;BME280;31961;52.416;-0.732;2022-09-09T08:34:15;99627.77;;;12.42;74.00
46241;BME280;31961;52.416;-0.732;2022-09-09T08:36:44;99630.83;;;12.27;74.52
46241;BME280;31961;52.416;-0.732;2022-09-09T08:39:14;99631.57;;;12.53;75.13
46241;BME280;31961;52.416;-0.732;2022-09-09T08:43:01;99633.74;;;12.41;75.80
46241;BME280;31961;52.416;-0.732;2022-09-09T08:45:34;99634.04;;;12.31;75.59
46241;BME280;31961;52.416;-0.732;2022-09-09T08:48:17;99636.15;;;12.34;75.15
46241;BME280;31961;52.416;-0.732;2022-09-09T08:50:49;99631.88;;;12.88;73.89
46241;BME280;31961;52.416;-0.732;2022-09-09T08:53:19;99635.15;;;12.27;73.31
46241;BME280;31961;52.416;-0.732;2022-09-09T08:55:50;99640.59;;;12.65;75.47
46241;BME280;31961;52.416;-0.732;2022-09-09T08:58:20;99637.55;;;13.04;72.46
46241;BME280;31961;52.416;-0.732;2022-09-09T09:00:59;99642.02;;;12.96;71.92
46241;BME280;31961;52.416;-0.732;2022-09-09T09:03:36;99650.51;;;13.13;72.89
46241;BME280;31961;52.416;-0.732;2022-09-09T09:06:17;99652.62;;;13.15;71.46
46241;BME280;31961;52.416;-0.732;2022-09-09T09:08:52;99649.83;;;13.67;69.85
46241;BME280;31961;52.416;-0.732;2022-09-09T09:11:22;99655.59;;;13.81;67.95
46241;BME280;31961;52.416;-0.732;2022-09-09T09:13:54;99667.42;;;12.57;72.38
46241;BME280;31961;52.416;-0.732;2022-09-09T09:16:26;99666.36;;;12.68;72.81
46241;BME280;31961;52.416;-0.732;2022-09-09T09:18:56;99660.47;;;14.15;68.95
46241;BME280;31961;52.416;-0.732;2022-09-09T09:21:39;99661.51;;;13.65;69.20
46241;BME280;31961;52.416;-0.732;2022-09-09T09:24:17;99666.65;;;13.86;69.53
46241;BME280;31961;52.416;-0.732;2022-09-09T09:26:44;99674.81;;;14.00;68.90
46241;BME280;31961;52.416;-0.732;2022-09-09T09:29:15;99677.86;;;13.57;69.44
46241;BME280;31961;52.416;-0.732;2022-09-09T09:31:45;99680.96;;;13.27;71.16
46241;BME280;31961;52.416;-0.732;2022-09-09T09:34:14;99683.73;;;13.66;70.48
46241;BME280;31961;52.416;-0.732;2022-09-09T09:36:43;99686.08;;;13.66;70.50
46241;BME280;31961;52.416;-0.732;2022-09-09T09:39:22;99685.89;;;12.59;71.09
46241;BME280;31961;52.416;-0.732;2022-09-09T09:41:51;99688.03;;;14.17;68.96
46241;BME280;31961;52.416;-0.732;2022-09-09T09:44:24;99689.83;;;13.55;69.32
46241;BME280;31961;52.416;-0.732;2022-09-09T09:46:52;99693.14;;;13.66;69.83
46241;BME280;31961;52.416;-0.732;2022-09-09T09:49:19;99691.60;;;13.97;69.12
46241;BME280;31961;52.416;-0.732;2022-09-09T09:51:47;99698.18;;;13.52;69.57
46241;BME280;31961;52.416;-0.732;2022-09-09T09:54:21;99698.33;;;13.91;69.08
46241;BME280;31961;52.416;-0.732;2022-09-09T09:56:51;99701.72;;;13.64;69.84
46241;BME280;31961;52.416;-0.732;2022-09-09T09:59:21;99700.57;;;13.55;70.23
46241;BME280;31961;52.416;-0.732;2022-09-09T10:01:49;99699.98;;;13.87;70.38
46241;BME280;31961;52.416;-0.732;2022-09-09T10:04:17;99698.48;;;14.24;68.93
46241;BME280;31961;52.416;-0.732;2022-09-09T10:06:45;99693.47;;;15.30;62.54
46241;BME280;31961;52.416;-0.732;2022-09-09T10:09:23;99694.78;;;14.14;65.47
46241;BME280;31961;52.416;-0.732;2022-09-09T10:11:58;99697.99;;;14.22;65.71
46241;BME280;31961;52.416;-0.732;2022-09-09T10:14:32;99693.78;;;14.80;63.44
46241;BME280;31961;52.416;-0.732;2022-09-09T10:17:14;99692.26;;;14.97;62.97
46241;BME280;31961;52.416;-0.732;2022-09-09T10:19:55;99689.94;;;15.90;60.38
46241;BME280;31961;52.416;-0.732;2022-09-09T10:22:26;99694.17;;;16.37;59.62
46241;BME280;31961;52.416;-0.732;2022-09-09T10:25:05;99694.07;;;16.05;59.81
46241;BME280;31961;52.416;-0.732;2022-09-09T10:27:45;99699.85;;;15.37;60.75
46241;BME280;31961;52.416;-0.732;2022-09-09T10:30:17;99703.66;;;14.93;61.81
46241;BME280;31961;52.416;-0.732;2022-09-09T10:32:56;99704.69;;;15.42;59.84
46241;BME280;31961;52.416;-0.732;2022-09-09T10:35:31;99703.56;;;15.31;61.82
46241;BME280;31961;52.416;-0.732;2022-09-09T10:38:11;99702.01;;;16.02;58.62
46241;BME280;31961;52.416;-0.732;2022-09-09T10:40:43;99705.67;;;14.80;62.71
46241;BME280;31961;52.416;-0.732;2022-09-09T10:43:23;99704.11;;;15.07;62.52
46241;BME280;31961;52.416;-0.732;2022-09-09T10:46:02;99707.15;;;15.62;62.12
46241;BME280;31961;52.416;-0.732;2022-09-09T10:48:41;99703.37;;;16.03;59.53
46241;BME280;31961;52.416;-0.732;2022-09-09T10:51:21;99703.92;;;14.76;61.56
46241;BME280;31961;52.416;-0.732;2022-09-09T10:54:00;99700.70;;;15.69;59.82
46241;BME280;31961;52.416;-0.732;2022-09-09T10:56:31;99702.86;;;16.65;58.56
46241;BME280;31961;52.416;-0.732;2022-09-09T10:59:04;99701.42;;;15.79;58.06
46241;BME280;31961;52.416;-0.732;2022-09-09T11:01:39;99704.94;;;15.77;60.12
46241;BME280;31961;52.416;-0.732;2022-09-09T11:04:13;99706.74;;;14.79;61.05
46241;BME280;31961;52.416;-0.732;2022-09-09T11:06:45;99711.96;;;15.42;60.17
46241;BME280;31961;52.416;-0.732;2022-09-09T11:09:18;99705.32;;;15.95;59.05
46241;BME280;31961;52.416;-0.732;2022-09-09T11:11:51;99711.19;;;16.46;58.34
46241;BME280;31961;52.416;-0.732;2022-09-09T11:14:24;99709.73;;;15.94;58.89
46241;BME280;31961;52.416;-0.732;2022-09-09T11:16:57;99709.47;;;15.83;59.45
46241;BME280;31961;52.416;-0.732;2022-09-09T11:19:28;99711.88;;;15.91;59.26
46241;BME280;31961;52.416;-0.732;2022-09-09T11:22:00;99711.19;;;15.54;58.96
46241;BME280;31961;52.416;-0.732;2022-09-09T11:24:31;99715.74;;;15.67;59.83
46241;BME280;31961;52.416;-0.732;2022-09-09T11:27:05;99713.91;;;15.81;58.86
46241;BME280;31961;52.416;-0.732;2022-09-09T11:29:49;99717.99;;;15.22;60.35
46241;BME280;31961;52.416;-0.732;2022-09-09T11:32:52;99716.86;;;15.60;59.61
46241;BME280;31961;52.416;-0.732;2022-09-09T11:35:30;99709.79;;;15.83;59.46
46241;BME280;31961;52.416;-0.732;2022-09-09T11:38:16;99708.48;;;17.21;55.29
46241;BME280;31961;52.416;-0.732;2022-09-09T11:40:46;99706.39;;;17.09;54.79
46241;BME280;31961;52.416;-0.732;2022-09-09T11:43:24;99711.24;;;16.39;55.90
46241;BME280;31961;52.416;-0.732;2022-09-09T11:45:55;99714.41;;;16.31;57.46
46241;BME280;31961;52.416;-0.732;2022-09-09T11:48:26;99712.33;;;15.91;56.27
46241;BME280;31961;52.416;-0.732;2022-09-09T11:50:59;99714.83;;;16.13;56.25
46241;BME280;31961;52.416;-0.732;2022-09-09T11:53:26;99715.40;;;15.91;56.19
46241;BME280;31961;52.416;-0.732;2022-09-09T11:56:11;99715.73;;;16.26;54.96
46241;BME280;31961;52.416;-0.732;2022-09-09T11:58:43;99716.06;;;17.35;53.08
46241;BME280;31961;52.416;-0.732;2022-09-09T12:01:43;99707.46;;;17.59;54.66
46241;BME280;31961;52.416;-0.732;2022-09-09T12:04:29;99705.91;;;17.28;52.94
46241;BME280;31961;52.416;-0.732;2022-09-09T12:07:02;99707.06;;;17.79;51.72
46241;BME280;31961;52.416;-0.732;2022-09-09T12:09:35;99708.48;;;17.83;51.45
46241;BME280;31961;52.416;-0.732;2022-09-09T12:12:21;99709.33;;;17.66;51.15
46241;BME280;31961;52.416;-0.732;2022-09-09T12:14:57;99714.85;;;18.22;51.68
46241;BME280;31961;52.416;-0.732;2022-09-09T12:17:27;99716.95;;;17.69;52.62
46241;BME280;31961;52.416;-0.732;2022-09-09T12:20:13;99721.15;;;17.63;49.04
46241;BME280;31961;52.416;-0.732;2022-09-09T12:22:51;99721.22;;;17.78;49.31
46241;BME280;31961;52.416;-0.732;2022-09-09T12:25:31;99725.32;;;17.32;49.59
46241;BME280;31961;52.416;-0.732;2022-09-09T12:28:05;99725.43;;;17.36;49.56
46241;BME280;31961;52.416;-0.732;2022-09-09T12:30:42;99726.72;;;17.23;50.00
46241;BME280;31961;52.416;-0.732;2022-09-09T12:33:18;99729.38;;;17.70;50.04
46241;BME280;31961;52.416;-0.732;2022-09-09T12:35:51;99733.05;;;17.10;50.70
46241;BME280;31961;52.416;-0.732;2022-09-09T12:38:25;99732.58;;;16.33;51.81
46241;BME280;31961;52.416;-0.732;2022-09-09T12:40:55;99729.61;;;17.76;49.89
46241;BME280;31961;52.416;-0.732;2022-09-09T12:43:25;99732.71;;;18.08;49.76
46241;BME280;31961;52.416;-0.732;2022-09-09T12:45:55;99735.25;;;18.28;46.44
46241;BME280;31961;52.416;-0.732;2022-09-09T12:48:29;99730.83;;;18.95;46.60
46241;BME280;31961;52.416;-0.732;2022-09-09T12:50:57;99731.11;;;19.67;44.67
46241;BME280;31961;52.416;-0.732;2022-09-09T12:53:26;99734.81;;;19.61;44.95
46241;BME280;31961;52.416;-0.732;2022-09-09T12:55:57;99732.32;;;19.88;44.75
46241;BME280;31961;52.416;-0.732;2022-09-09T12:58:26;99732.83;;;19.18;46.77
46241;BME280;31961;52.416;-0.732;2022-09-09T13:00:56;99729.70;;;20.03;44.53
46241;BME280;31961;52.416;-0.732;2022-09-09T13:03:23;99729.75;;;19.58;45.09
46241;BME280;31961;52.416;-0.732;2022-09-09T13:05:51;99732.63;;;19.22;46.31
46241;BME280;31961;52.416;-0.732;2022-09-09T13:08:19;99736.14;;;19.20;47.43
46241;BME280;31961;52.416;-0.732;2022-09-09T13:10:49;99733.69;;;18.56;46.92